sensor_id;sensor_type;location;lat;lon;timestamp;temperature;humidity
61912;DHT22;49973;52.084;5.412;2023-04-26T00:00:03;3.30;99.90
61912;DHT22;49973;52.084;5.412;2023-04-26T00:02:35;3.30;99.90
61912;DHT22;49973;52.084;5.412;2023-04-26T00:05:05;3.30;99.90
61912;DHT22;49973;52.084;5.412;2023-04-26T00:07:37;3.30;99.90
61912;DHT22;49973;52.084;5.412;2023-04-26T00:10:06;3.30;99.90
61912;DHT22;49973;52.084;5.412;2023-04-26T00:12:35;3.20;99.90
61912;DHT22;49973;52.084;5.412;2023-04-26T00:15:05;3.20;99.90
61912;DHT22;49973;52.084;5.412;2023-04-26T00:17:33;3.20;99.90
61912;DHT22;49973;52.084;5.412;2023-04-26T00:20:03;3.20;99.90
61912;DHT22;49973;52.084;5.412;2023-04-26T00:22:34;3.20;99.90
61912;DHT22;49973;52.084;5.412;2023-04-26T00:25:05;3.10;99.90
61912;DHT22;49973;52.084;5.412;2023-04-26T00:27:34;3.00;99.90
61912;DHT22;49973;52.084;5.412;2023-04-26T00:30:03;3.00;99.90
61912;DHT22;49973;52.084;5.412;2023-04-26T00:32:32;3.00;99.90
61912;DHT22;49973;52.084;5.412;2023-04-26T00:35:02;2.90;99.90
61912;DHT22;49973;52.084;5.412;2023-04-26T00:37:31;2.90;99.90
61912;DHT22;49973;52.084;5.412;2023-04-26T00:40:00;2.90;99.90
61912;DHT22;49973;52.084;5.412;2023-04-26T00:42:30;2.80;99.90
61912;DHT22;49973;52.084;5.412;2023-04-26T00:44:58;2.80;99.90
61912;DHT22;49973;52.084;5.412;2023-04-26T00:47:28;2.80;99.90
61912;DHT22;49973;52.084;5.412;2023-04-26T00:49:58;2.80;99.90
61912;DHT22;49973;52.084;5.412;2023-04-26T00:52:27;2.70;99.90
61912;DHT22;49973;52.084;5.412;2023-04-26T00:54:56;2.70;99.90
61912;DHT22;49973;52.084;5.412;2023-04-26T00:57:25;2.70;99.90
61912;DHT22;49973;52.084;5.412;2023-04-26T00:59:55;2.60;99.90
61912;DHT22;49973;52.084;5.412;2023-04-26T01:02:25;2.60;99.90
61912;DHT22;49973;52.084;5.412;2023-04-26T01:04:54;2.60;99.90
61912;DHT22;49973;52.084;5.412;2023-04-26T01:07:22;2.60;99.90
61912;DHT22;49973;52.084;5.412;2023-04-26T01:09:51;2.50;99.90
61912;DHT22;49973;52.084;5.412;2023-04-26T01:12:21;2.50;99.90
61912;DHT22;49973;52.084;5.412;2023-04-26T01:14:50;2.40;99.90
61912;DHT22;49973;52.084;5.412;2023-04-26T01:17:23;2.40;99.90
61912;DHT22;49973;52.084;5.412;2023-04-26T01:19:52;2.40;99.90
61912;DHT22;49973;52.084;5.412;2023-04-26T01:22:20;2.40;99.90
61912;DHT22;49973;52.084;5.412;2023-04-26T01:24:50;2.30;99.90
61912;DHT22;49973;52.084;5.412;2023-04-26T01:27:22;2.30;99.90
61912;DHT22;49973;52.084;5.412;2023-04-26T01:29:51;2.30;99.90
61912;DHT22;49973;52.084;5.412;2023-04-26T01:32:20;2.30;99.90
61912;DHT22;49973;52.084;5.412;2023-04-26T01:34:49;2.20;99.90
61912;DHT22;49973;52.084;5.412;2023-04-26T01:37:18;2.20;99.90
61912;DHT22;49973;52.084;5.412;2023-04-26T01:39:46;2.20;99.90
61912;DHT22;49973;52.084;5.412;2023-04-26T01:42:16;2.20;99.90
61912;DHT22;49973;52.084;5.412;2023-04-26T01:44:45;2.10;99.90
61912;DHT22;49973;52.084;5.412;2023-04-26T01:47:14;2.10;99.90
61912;DHT22;49973;52.084;5.412;2023-04-26T01:49:42;2.10;99.90
61912;DHT22;49973;52.084;5.412;2023-04-26T01:52:13;2.10;99.90
61912;DHT22;49973;52.084;5.412;2023-04-26T01:54:41;2.00;99.90
61912;DHT22;49973;52.084;5.412;2023-04-26T01:57:10;2.00;99.90
61912;DHT22;49973;52.084;5.412;2023-04-26T01:59:40;2.10;99.90
61912;DHT22;49973;52.084;5.412;2023-04-26T02:02:08;1.90;99.90
61912;DHT22;49973;52.084;5.412;2023-04-26T02:04:37;1.90;99.90
61912;DHT22;49973;52.084;5.412;2023-04-26T02:07:06;2.10;99.90
61912;DHT22;49973;52.084;5.412;2023-04-26T02:09:45;1.90;99.90
61912;DHT22;49973;52.084;5.412;2023-04-26T02:12:14;1.80;99.90
61912;DHT22;49973;52.084;5.412;2023-04-26T02:14:43;1.80;99.90
61912;DHT22;49973;52.084;5.412;2023-04-26T02:17:12;1.80;99.90
61912;DHT22;49973;52.084;5.412;2023-04-26T02:19:42;1.80;99.90
61912;DHT22;49973;52.084;5.412;2023-04-26T02:22:11;1.80;99.90
61912;DHT22;49973;52.084;5.412;2023-04-26T02:24:41;1.80;99.90
61912;DHT22;49973;52.084;5.412;2023-04-26T02:27:10;1.70;99.90
61912;DHT22;49973;52.084;5.412;2023-04-26T02:29:39;1.70;99.90
61912;DHT22;49973;52.084;5.412;2023-04-26T02:32:13;1.70;99.90
61912;DHT22;49973;52.084;5.412;2023-04-26T02:34:43;1.70;99.90
61912;DHT22;49973;52.084;5.412;2023-04-26T02:37:11;1.70;99.90
61912;DHT22;49973;52.084;5.412;2023-04-26T02:39:40;1.70;99.90
61912;DHT22;49973;52.084;5.412;2023-04-26T02:42:09;1.70;99.90
61912;DHT22;49973;52.084;5.412;2023-04-26T02:44:37;1.70;99.90
61912;DHT22;49973;52.084;5.412;2023-04-26T02:47:07;1.60;99.90
61912;DHT22;49973;52.084;5.412;2023-04-26T02:49:38;1.60;99.90
61912;DHT22;49973;52.084;5.412;2023-04-26T02:52:06;1.60;99.90
61912;DHT22;49973;52.084;5.412;2023-04-26T02:54:35;1.60;99.90
61912;DHT22;49973;52.084;5.412;2023-04-26T02:57:04;1.60;99.90
61912;DHT22;49973;52.084;5.412;2023-04-26T02:59:32;1.50;99.90
61912;DHT22;49973;52.084;5.412;2023-04-26T03:02:01;1.50;99.90
61912;DHT22;49973;52.084;5.412;2023-04-26T03:04:31;1.50;99.90
61912;DHT22;49973;52.084;5.412;2023-04-26T03:07:01;1.40;99.90
61912;DHT22;49973;52.084;5.412;2023-04-26T03:09:30;1.60;99.90
61912;DHT22;49973;52.084;5.412;2023-04-26T03:12:00;1.40;99.90
61912;DHT22;49973;52.084;5.412;2023-04-26T03:14:31;1.40;99.90
61912;DHT22;49973;52.084;5.412;2023-04-26T03:16:59;1.40;99.90
61912;DHT22;49973;52.084;5.412;2023-04-26T03:19:31;1.40;99.90
61912;DHT22;49973;52.084;5.412;2023-04-26T03:22:03;1.30;99.90
61912;DHT22;49973;52.084;5.412;2023-04-26T03:24:32;1.40;99.90
61912;DHT22;49973;52.084;5.412;2023-04-26T03:27:01;1.30;99.90
61912;DHT22;49973;52.084;5.412;2023-04-26T03:29:29;1.30;99.90
61912;DHT22;49973;52.084;5.412;2023-04-26T03:31:58;1.30;99.90
61912;DHT22;49973;52.084;5.412;2023-04-26T03:34:26;1.30;99.90
61912;DHT22;49973;52.084;5.412;2023-04-26T03:36:56;1.30;99.90
61912;DHT22;49973;52.084;5.412;2023-04-26T03:39:26;1.30;99.90
61912;DHT22;49973;52.084;5.412;2023-04-26T03:41:55;1.20;99.90
61912;DHT22;49973;52.084;5.412;2023-04-26T03:44:23;1.40;99.90
61912;DHT22;49973;52.084;5.412;2023-04-26T03:46:52;1.20;99.90
61912;DHT22;49973;52.084;5.412;2023-04-26T03:49:22;1.20;99.90
61912;DHT22;49973;52.084;5.412;2023-04-26T03:51:50;1.20;99.90
61912;DHT22;49973;52.084;5.412;2023-04-26T03:54:19;1.20;99.90
61912;DHT22;49973;52.084;5.412;2023-04-26T03:56:49;1.20;99.90
61912;DHT22;49973;52.084;5.412;2023-04-26T03:59:19;1.20;99.90
61912;DHT22;49973;52.084;5.412;2023-04-26T04:01:48;1.20;99.90
61912;DHT22;49973;52.084;5.412;2023-04-26T04:04:16;1.20;99.90
61912;DHT22;49973;52.084;5.412;2023-04-26T04:06:46;1.20;99.90
61912;DHT22;49973;52.084;5.412;2023-04-26T04:09:14;1.10;99.90
61912;DHT22;49973;52.084;5.412;2023-04-26T04:11:43;1.30;99.90
61912;DHT22;49973;52.084;5.412;2023-04-26T04:14:15;1.10;99.90
61912;DHT22;49973;52.084;5.412;2023-04-26T04:16:45;1.10;99.90
61912;DHT22;49973;52.084;5.412;2023-04-26T04:19:14;1.10;99.90
61912;DHT22;49973;52.084;5.412;2023-04-26T04:21:43;1.10;99.90
61912;DHT22;49973;52.084;5.412;2023-04-26T04:24:11;1.10;99.90
61912;DHT22;49973;52.084;5.412;2023-04-26T04:26:40;1.10;99.90
61912;DHT22;49973;52.084;5.412;2023-04-26T04:29:09;1.10;99.90
61912;DHT22;49973;52.084;5.412;2023-04-26T04:31:39;1.10;99.90
61912;DHT22;49973;52.084;5.412;2023-04-26T04:34:08;1.20;99.90
61912;DHT22;49973;52.084;5.412;2023-04-26T04:36:40;1.20;99.90
61912;DHT22;49973;52.084;5.412;2023-04-26T04:39:09;1.20;99.90
61912;DHT22;49973;52.084;5.412;2023-04-26T04:41:43;1.20;99.90
61912;DHT22;49973;52.084;5.412;2023-04-26T04:44:16;1.20;99.90
61912;DHT22;49973;52.084;5.412;2023-04-26T04:46:47;1.20;99.90
61912;DHT22;49973;52.084;5.412;2023-04-26T04:49:15;1.30;99.90
61912;DHT22;49973;52.084;5.412;2023-04-26T04:51:45;1.30;99.90
61912;DHT22;49973;52.084;5.412;2023-04-26T04:54:14;1.30;99.90
61912;DHT22;49973;52.084;5.412;2023-04-26T04:56:45;1.40;99.90
61912;DHT22;49973;52.084;5.412;2023-04-26T04:59:15;1.40;99.90
61912;DHT22;49973;52.084;5.412;2023-04-26T05:01:48;1.50;99.90
61912;DHT22;49973;52.084;5.412;2023-04-26T05:04:18;1.50;99.90
61912;DHT22;49973;52.084;5.412;2023-04-26T05:06:48;1.60;99.90
61912;DHT22;49973;52.084;5.412;2023-04-26T05:09:17;1.70;99.90
61912;DHT22;49973;52.084;5.412;2023-04-26T05:11:46;1.80;99.90
61912;DHT22;49973;52.084;5.412;2023-04-26T05:14:15;1.90;99.90
61912;DHT22;49973;52.084;5.412;2023-04-26T05:16:44;2.10;99.90
61912;DHT22;49973;52.084;5.412;2023-04-26T05:19:14;2.20;99.90
61912;DHT22;49973;52.084;5.412;2023-04-26T05:21:43;2.40;99.90
61912;DHT22;49973;52.084;5.412;2023-04-26T05:24:12;2.50;99.90
61912;DHT22;49973;52.084;5.412;2023-04-26T05:26:41;2.70;99.90
61912;DHT22;49973;52.084;5.412;2023-04-26T05:29:28;2.80;99.90
61912;DHT22;49973;52.084;5.412;2023-04-26T05:32:14;3.00;99.90
61912;DHT22;49973;52.084;5.412;2023-04-26T05:34:50;3.10;99.90
61912;DHT22;49973;52.084;5.412;2023-04-26T05:37:19;3.30;99.90
61912;DHT22;49973;52.084;5.412;2023-04-26T05:39:47;3.40;99.90
61912;DHT22;49973;52.084;5.412;2023-04-26T05:42:17;3.50;99.90
61912;DHT22;49973;52.084;5.412;2023-04-26T05:44:46;3.70;99.90
61912;DHT22;49973;52.084;5.412;2023-04-26T05:47:15;3.80;99.90
61912;DHT22;49973;52.084;5.412;2023-04-26T05:49:43;3.90;99.90
61912;DHT22;49973;52.084;5.412;2023-04-26T05:52:13;4.00;99.90
61912;DHT22;49973;52.084;5.412;2023-04-26T05:54:42;4.20;99.90
61912;DHT22;49973;52.084;5.412;2023-04-26T05:57:10;4.40;99.90
61912;DHT22;49973;52.084;5.412;2023-04-26T05:59:39;4.60;99.90
61912;DHT22;49973;52.084;5.412;2023-04-26T06:02:08;5.00;99.90
61912;DHT22;49973;52.084;5.412;2023-04-26T06:04:38;5.40;99.90
61912;DHT22;49973;52.084;5.412;2023-04-26T06:07:12;6.00;99.90
61912;DHT22;49973;52.084;5.412;2023-04-26T06:09:41;6.70;99.90
61912;DHT22;49973;52.084;5.412;2023-04-26T06:12:09;7.20;99.90
61912;DHT22;49973;52.084;5.412;2023-04-26T06:14:41;7.70;99.90
61912;DHT22;49973;52.084;5.412;2023-04-26T06:17:14;8.20;99.90
61912;DHT22;49973;52.084;5.412;2023-04-26T06:19:43;8.60;99.90
61912;DHT22;49973;52.084;5.412;2023-04-26T06:22:13;8.90;99.90
61912;DHT22;49973;52.084;5.412;2023-04-26T06:24:41;9.20;99.90
61912;DHT22;49973;52.084;5.412;2023-04-26T06:27:10;9.40;99.90
61912;DHT22;49973;52.084;5.412;2023-04-26T06:29:43;9.50;99.90
61912;DHT22;49973;52.084;5.412;2023-04-26T06:32:11;9.50;99.90
61912;DHT22;49973;52.084;5.412;2023-04-26T06:34:40;9.50;99.90
61912;DHT22;49973;52.084;5.412;2023-04-26T06:37:10;9.50;99.90
61912;DHT22;49973;52.084;5.412;2023-04-26T06:39:43;9.60;99.90
61912;DHT22;49973;52.084;5.412;2023-04-26T06:42:12;9.90;99.90
61912;DHT22;49973;52.084;5.412;2023-04-26T06:44:59;10.20;99.90
61912;DHT22;49973;52.084;5.412;2023-04-26T06:47:32;10.60;99.90
61912;DHT22;49973;52.084;5.412;2023-04-26T06:50:02;10.80;99.90
61912;DHT22;49973;52.084;5.412;2023-04-26T06:52:30;11.00;99.90
61912;DHT22;49973;52.084;5.412;2023-04-26T06:55:02;11.20;99.90
61912;DHT22;49973;52.084;5.412;2023-04-26T06:57:31;11.50;99.90
61912;DHT22;49973;52.084;5.412;2023-04-26T06:59:59;11.60;99.90
61912;DHT22;49973;52.084;5.412;2023-04-26T07:02:30;11.80;99.90
61912;DHT22;49973;52.084;5.412;2023-04-26T07:04:58;12.00;99.90
61912;DHT22;49973;52.084;5.412;2023-04-26T07:07:28;12.30;99.90
61912;DHT22;49973;52.084;5.412;2023-04-26T07:09:56;12.50;99.90
61912;DHT22;49973;52.084;5.412;2023-04-26T07:12:26;12.70;99.90
61912;DHT22;49973;52.084;5.412;2023-04-26T07:14:55;12.90;99.90
61912;DHT22;49973;52.084;5.412;2023-04-26T07:17:23;13.00;99.90
61912;DHT22;49973;52.084;5.412;2023-04-26T07:19:52;13.10;99.90
61912;DHT22;49973;52.084;5.412;2023-04-26T07:22:22;13.00;99.90
61912;DHT22;49973;52.084;5.412;2023-04-26T07:24:51;13.00;99.90
61912;DHT22;49973;52.084;5.412;2023-04-26T07:27:20;12.90;99.90
61912;DHT22;49973;52.084;5.412;2023-04-26T07:29:52;13.00;99.90
61912;DHT22;49973;52.084;5.412;2023-04-26T07:32:21;13.20;99.90
61912;DHT22;49973;52.084;5.412;2023-04-26T07:34:50;13.40;99.90
61912;DHT22;49973;52.084;5.412;2023-04-26T07:37:19;13.50;99.90
61912;DHT22;49973;52.084;5.412;2023-04-26T07:39:47;13.50;99.90
61912;DHT22;49973;52.084;5.412;2023-04-26T07:42:16;13.50;99.90
61912;DHT22;49973;52.084;5.412;2023-04-26T07:44:46;13.20;99.90
61912;DHT22;49973;52.084;5.412;2023-04-26T07:47:17;13.10;99.90
61912;DHT22;49973;52.084;5.412;2023-04-26T07:49:45;12.80;99.90
61912;DHT22;49973;52.084;5.412;2023-04-26T07:52:14;12.60;99.90
61912;DHT22;49973;52.084;5.412;2023-04-26T07:54:44;12.60;99.90
61912;DHT22;49973;52.084;5.412;2023-04-26T07:57:13;12.40;99.90
61912;DHT22;49973;52.084;5.412;2023-04-26T07:59:42;12.20;99.90
61912;DHT22;49973;52.084;5.412;2023-04-26T08:02:11;12.00;99.90
61912;DHT22;49973;52.084;5.412;2023-04-26T08:04:46;11.70;99.90
61912;DHT22;49973;52.084;5.412;2023-04-26T08:07:16;11.70;99.90
61912;DHT22;49973;52.084;5.412;2023-04-26T08:09:44;12.00;99.90
61912;DHT22;49973;52.084;5.412;2023-04-26T08:12:14;12.50;99.90
61912;DHT22;49973;52.084;5.412;2023-04-26T08:14:42;13.10;99.90
61912;DHT22;49973;52.084;5.412;2023-04-26T08:17:11;13.70;99.90
61912;DHT22;49973;52.084;5.412;2023-04-26T08:19:41;14.10;99.90
61912;DHT22;49973;52.084;5.412;2023-04-26T08:22:10;14.50;99.90
61912;DHT22;49973;52.084;5.412;2023-04-26T08:24:39;14.90;99.90
61912;DHT22;49973;52.084;5.412;2023-04-26T08:27:07;15.20;99.90
61912;DHT22;49973;52.084;5.412;2023-04-26T08:29:36;15.30;99.90
61912;DHT22;49973;52.084;5.412;2023-04-26T08:32:04;15.20;99.90
61912;DHT22;49973;52.084;5.412;2023-04-26T08:34:33;14.90;99.90
61912;DHT22;49973;52.084;5.412;2023-04-26T08:37:05;14.40;99.90
61912;DHT22;49973;52.084;5.412;2023-04-26T08:39:34;13.70;99.90
61912;DHT22;49973;52.084;5.412;2023-04-26T08:42:05;13.20;99.90
61912;DHT22;49973;52.084;5.412;2023-04-26T08:44:34;12.60;99.90
61912;DHT22;49973;52.084;5.412;2023-04-26T08:47:14;12.10;99.90
61912;DHT22;49973;52.084;5.412;2023-04-26T08:49:44;11.80;99.90
61912;DHT22;49973;52.084;5.412;2023-04-26T08:52:15;11.30;99.90
61912;DHT22;49973;52.084;5.412;2023-04-26T08:54:49;11.00;99.90
61912;DHT22;49973;52.084;5.412;2023-04-26T08:57:19;10.70;99.90
61912;DHT22;49973;52.084;5.412;2023-04-26T08:59:49;10.50;99.90
61912;DHT22;49973;52.084;5.412;2023-04-26T09:02:20;10.40;99.90
61912;DHT22;49973;52.084;5.412;2023-04-26T09:04:49;10.20;99.90
61912;DHT22;49973;52.084;5.412;2023-04-26T09:07:21;10.00;99.90
61912;DHT22;49973;52.084;5.412;2023-04-26T09:09:49;9.90;99.90
61912;DHT22;49973;52.084;5.412;2023-04-26T09:12:19;9.80;99.90
61912;DHT22;49973;52.084;5.412;2023-04-26T09:14:48;9.70;99.90
61912;DHT22;49973;52.084;5.412;2023-04-26T09:17:30;9.70;99.90
61912;DHT22;49973;52.084;5.412;2023-04-26T09:19:59;9.70;99.90
61912;DHT22;49973;52.084;5.412;2023-04-26T09:22:33;9.80;99.90
61912;DHT22;49973;52.084;5.412;2023-04-26T09:25:03;9.70;99.90
61912;DHT22;49973;52.084;5.412;2023-04-26T09:27:36;9.80;99.90
61912;DHT22;49973;52.084;5.412;2023-04-26T09:30:07;9.80;99.90
61912;DHT22;49973;52.084;5.412;2023-04-26T09:32:43;9.90;99.90
61912;DHT22;49973;52.084;5.412;2023-04-26T09:35:26;10.00;99.90
61912;DHT22;49973;52.084;5.412;2023-04-26T09:37:58;10.10;99.90
61912;DHT22;49973;52.084;5.412;2023-04-26T09:40:38;10.10;99.90
61912;DHT22;49973;52.084;5.412;2023-04-26T09:43:08;10.30;99.90
61912;DHT22;49973;52.084;5.412;2023-04-26T09:45:43;10.40;99.90
61912;DHT22;49973;52.084;5.412;2023-04-26T09:48:19;10.60;99.90
61912;DHT22;49973;52.084;5.412;2023-04-26T09:50:50;10.80;99.90
61912;DHT22;49973;52.084;5.412;2023-04-26T09:53:28;11.00;99.90
61912;DHT22;49973;52.084;5.412;2023-04-26T09:56:06;11.30;99.90
61912;DHT22;49973;52.084;5.412;2023-04-26T09:58:36;11.40;99.90
61912;DHT22;49973;52.084;5.412;2023-04-26T10:01:07;11.60;99.90
61912;DHT22;49973;52.084;5.412;2023-04-26T10:03:36;11.80;99.90
61912;DHT22;49973;52.084;5.412;2023-04-26T10:06:06;11.90;99.90
61912;DHT22;49973;52.084;5.412;2023-04-26T10:08:36;12.10;99.90
61912;DHT22;49973;52.084;5.412;2023-04-26T10:11:05;12.30;99.90
61912;DHT22;49973;52.084;5.412;2023-04-26T10:13:36;12.50;99.90
61912;DHT22;49973;52.084;5.412;2023-04-26T10:16:05;12.80;99.90
61912;DHT22;49973;52.084;5.412;2023-04-26T10:18:34;13.00;99.90
61912;DHT22;49973;52.084;5.412;2023-04-26T10:21:06;13.20;99.90
61912;DHT22;49973;52.084;5.412;2023-04-26T10:23:38;13.40;99.90
61912;DHT22;49973;52.084;5.412;2023-04-26T10:26:46;13.70;99.90
61912;DHT22;49973;52.084;5.412;2023-04-26T10:29:15;13.90;99.90
61912;DHT22;49973;52.084;5.412;2023-04-26T10:32:07;13.90;99.90
61912;DHT22;49973;52.084;5.412;2023-04-26T10:34:38;13.80;99.90
61912;DHT22;49973;52.084;5.412;2023-04-26T10:37:12;13.80;99.90
61912;DHT22;49973;52.084;5.412;2023-04-26T10:39:43;13.70;99.90
61912;DHT22;49973;52.084;5.412;2023-04-26T10:42:24;13.60;99.90
61912;DHT22;49973;52.084;5.412;2023-04-26T10:44:54;13.40;99.90
61912;DHT22;49973;52.084;5.412;2023-04-26T10:47:29;13.20;99.90
61912;DHT22;49973;52.084;5.412;2023-04-26T10:50:03;13.00;99.90
61912;DHT22;49973;52.084;5.412;2023-04-26T10:52:33;12.80;99.90
61912;DHT22;49973;52.084;5.412;2023-04-26T10:55:03;12.40;99.90
61912;DHT22;49973;52.084;5.412;2023-04-26T10:57:51;12.10;99.90
61912;DHT22;49973;52.084;5.412;2023-04-26T11:00:28;11.90;99.90
61912;DHT22;49973;52.084;5.412;2023-04-26T11:03:05;11.70;99.90
61912;DHT22;49973;52.084;5.412;2023-04-26T11:08:16;11.70;99.90
61912;DHT22;49973;52.084;5.412;2023-04-26T11:10:50;11.80;99.90
61912;DHT22;49973;52.084;5.412;2023-04-26T11:13:19;11.90;99.90
61912;DHT22;49973;52.084;5.412;2023-04-26T11:15:51;12.00;99.90
61912;DHT22;49973;52.084;5.412;2023-04-26T11:18:21;12.00;99.90
61912;DHT22;49973;52.084;5.412;2023-04-26T11:20:49;12.10;99.90
61912;DHT22;49973;52.084;5.412;2023-04-26T11:23:18;11.90;99.90
61912;DHT22;49973;52.084;5.412;2023-04-26T11:25:49;11.80;99.90
61912;DHT22;49973;52.084;5.412;2023-04-26T11:28:18;11.70;99.90
61912;DHT22;49973;52.084;5.412;2023-04-26T11:30:47;11.80;99.90
61912;DHT22;49973;52.084;5.412;2023-04-26T11:33:17;11.70;99.90
61912;DHT22;49973;52.084;5.412;2023-04-26T11:35:46;11.70;99.90
61912;DHT22;49973;52.084;5.412;2023-04-26T11:38:15;11.80;99.90
61912;DHT22;49973;52.084;5.412;2023-04-26T11:40:44;11.80;99.90
61912;DHT22;49973;52.084;5.412;2023-04-26T11:43:21;11.70;99.90
61912;DHT22;49973;52.084;5.412;2023-04-26T11:45:50;11.70;99.90
61912;DHT22;49973;52.084;5.412;2023-04-26T11:48:19;11.70;99.90
61912;DHT22;49973;52.084;5.412;2023-04-26T11:50:48;11.70;99.90
61912;DHT22;49973;52.084;5.412;2023-04-26T11:53:17;11.70;99.90
61912;DHT22;49973;52.084;5.412;2023-04-26T11:55:45;11.70;99.90
61912;DHT22;49973;52.084;5.412;2023-04-26T11:58:14;11.80;99.90
61912;DHT22;49973;52.084;5.412;2023-04-26T12:00:57;11.90;99.90
61912;DHT22;49973;52.084;5.412;2023-04-26T12:03:30;11.90;99.90
61912;DHT22;49973;52.084;5.412;2023-04-26T12:06:02;12.20;99.90
61912;DHT22;49973;52.084;5.412;2023-04-26T12:08:31;12.20;99.90
61912;DHT22;49973;52.084;5.412;2023-04-26T12:11:01;12.40;99.90
61912;DHT22;49973;52.084;5.412;2023-04-26T12:13:29;12.50;99.90
61912;DHT22;49973;52.084;5.412;2023-04-26T12:16:06;12.90;99.90
61912;DHT22;49973;52.084;5.412;2023-04-26T12:18:52;13.40;99.90
61912;DHT22;49973;52.084;5.412;2023-04-26T12:21:22;14.20;99.90
61912;DHT22;49973;52.084;5.412;2023-04-26T12:23:51;14.70;99.90
61912;DHT22;49973;52.084;5.412;2023-04-26T12:26:19;15.00;99.90
61912;DHT22;49973;52.084;5.412;2023-04-26T12:28:48;15.00;99.90
61912;DHT22;49973;52.084;5.412;2023-04-26T12:31:18;14.90;99.90
61912;DHT22;49973;52.084;5.412;2023-04-26T12:33:46;14.80;99.90
61912;DHT22;49973;52.084;5.412;2023-04-26T12:36:15;14.60;99.90
61912;DHT22;49973;52.084;5.412;2023-04-26T12:38:43;14.40;99.90
61912;DHT22;49973;52.084;5.412;2023-04-26T12:41:12;14.20;99.90
61912;DHT22;49973;52.084;5.412;2023-04-26T12:43:40;14.00;99.90
61912;DHT22;49973;52.084;5.412;2023-04-26T12:46:09;13.70;99.90
61912;DHT22;49973;52.084;5.412;2023-04-26T12:48:39;13.60;99.90
61912;DHT22;49973;52.084;5.412;2023-04-26T12:51:08;13.40;99.90
61912;DHT22;49973;52.084;5.412;2023-04-26T12:53:36;13.20;99.90
61912;DHT22;49973;52.084;5.412;2023-04-26T12:56:05;13.00;99.90
61912;DHT22;49973;52.084;5.412;2023-04-26T12:58:34;12.80;99.90
61912;DHT22;49973;52.084;5.412;2023-04-26T13:01:02;12.60;99.90
61912;DHT22;49973;52.084;5.412;2023-04-26T13:03:31;12.60;99.90
61912;DHT22;49973;52.084;5.412;2023-04-26T13:06:02;12.60;99.90
61912;DHT22;49973;52.084;5.412;2023-04-26T13:08:30;12.50;99.90
61912;DHT22;49973;52.084;5.412;2023-04-26T13:10:59;12.40;99.90
61912;DHT22;49973;52.084;5.412;2023-04-26T13:13:28;12.30;99.90
61912;DHT22;49973;52.084;5.412;2023-04-26T13:16:09;12.30;99.90
61912;DHT22;49973;52.084;5.412;2023-04-26T13:18:39;12.40;99.90
61912;DHT22;49973;52.084;5.412;2023-04-26T13:21:09;12.50;99.90
61912;DHT22;49973;52.084;5.412;2023-04-26T13:23:38;12.90;99.90
61912;DHT22;49973;52.084;5.412;2023-04-26T13:26:07;13.10;99.90
61912;DHT22;49973;52.084;5.412;2023-04-26T13:28:35;13.40;99.90
61912;DHT22;49973;52.084;5.412;2023-04-26T13:31:04;13.50;99.90
61912;DHT22;49973;52.084;5.412;2023-04-26T13:33:33;13.50;99.90
61912;DHT22;49973;52.084;5.412;2023-04-26T13:36:02;13.60;99.90
61912;DHT22;49973;52.084;5.412;2023-04-26T13:38:32;13.70;99.90
61912;DHT22;49973;52.084;5.412;2023-04-26T13:41:01;13.70;99.90
61912;DHT22;49973;52.084;5.412;2023-04-26T13:43:30;13.70;99.90
61912;DHT22;49973;52.084;5.412;2023-04-26T13:45:59;13.50;99.90
61912;DHT22;49973;52.084;5.412;2023-04-26T13:48:28;13.20;99.90
61912;DHT22;49973;52.084;5.412;2023-04-26T13:50:56;12.90;99.90
61912;DHT22;49973;52.084;5.412;2023-04-26T13:53:25;12.60;99.90
61912;DHT22;49973;52.084;5.412;2023-04-26T13:55:55;12.40;99.90
61912;DHT22;49973;52.084;5.412;2023-04-26T13:58:23;12.30;99.90
61912;DHT22;49973;52.084;5.412;2023-04-26T14:00:52;12.20;99.90
61912;DHT22;49973;52.084;5.412;2023-04-26T14:03:21;12.00;99.90
61912;DHT22;49973;52.084;5.412;2023-04-26T14:05:50;11.90;99.90
61912;DHT22;49973;52.084;5.412;2023-04-26T14:08:18;11.70;99.90
61912;DHT22;49973;52.084;5.412;2023-04-26T14:10:47;11.60;99.90
61912;DHT22;49973;52.084;5.412;2023-04-26T14:13:17;11.50;99.90
61912;DHT22;49973;52.084;5.412;2023-04-26T14:15:45;11.40;99.90
61912;DHT22;49973;52.084;5.412;2023-04-26T14:18:15;11.40;99.90
61912;DHT22;49973;52.084;5.412;2023-04-26T14:20:44;11.50;99.90
61912;DHT22;49973;52.084;5.412;2023-04-26T14:23:13;11.50;99.90
61912;DHT22;49973;52.084;5.412;2023-04-26T14:25:41;11.60;99.90
61912;DHT22;49973;52.084;5.412;2023-04-26T14:28:10;11.80;99.90
61912;DHT22;49973;52.084;5.412;2023-04-26T14:30:40;12.20;99.90
61912;DHT22;49973;52.084;5.412;2023-04-26T14:33:08;12.60;99.90
61912;DHT22;49973;52.084;5.412;2023-04-26T14:35:37;13.10;99.90
61912;DHT22;49973;52.084;5.412;2023-04-26T14:38:06;13.40;99.90
61912;DHT22;49973;52.084;5.412;2023-04-26T14:40:35;13.60;99.90
61912;DHT22;49973;52.084;5.412;2023-04-26T14:43:04;13.70;99.90
61912;DHT22;49973;52.084;5.412;2023-04-26T14:45:33;13.70;99.90
61912;DHT22;49973;52.084;5.412;2023-04-26T14:48:12;13.50;99.90
61912;DHT22;49973;52.084;5.412;2023-04-26T14:50:41;13.40;99.90
61912;DHT22;49973;52.084;5.412;2023-04-26T14:53:09;13.40;99.90
61912;DHT22;49973;52.084;5.412;2023-04-26T14:55:38;13.30;99.90
61912;DHT22;49973;52.084;5.412;2023-04-26T14:58:07;13.20;99.90
61912;DHT22;49973;52.084;5.412;2023-04-26T15:00:35;13.10;99.90
61912;DHT22;49973;52.084;5.412;2023-04-26T15:03:05;12.90;99.90
61912;DHT22;49973;52.084;5.412;2023-04-26T15:05:35;12.80;99.90
61912;DHT22;49973;52.084;5.412;2023-04-26T15:08:04;12.80;99.90
61912;DHT22;49973;52.084;5.412;2023-04-26T15:10:32;12.90;99.90
61912;DHT22;49973;52.084;5.412;2023-04-26T15:13:01;13.00;99.90
61912;DHT22;49973;52.084;5.412;2023-04-26T15:15:30;12.80;99.90
61912;DHT22;49973;52.084;5.412;2023-04-26T15:17:59;12.80;99.90
61912;DHT22;49973;52.084;5.412;2023-04-26T15:20:28;12.60;99.90
61912;DHT22;49973;52.084;5.412;2023-04-26T15:22:58;12.50;99.90
61912;DHT22;49973;52.084;5.412;2023-04-26T15:25:26;12.30;99.90
61912;DHT22;49973;52.084;5.412;2023-04-26T15:27:55;12.30;99.90
61912;DHT22;49973;52.084;5.412;2023-04-26T15:30:24;12.10;99.90
61912;DHT22;49973;52.084;5.412;2023-04-26T15:32:52;11.80;99.90
61912;DHT22;49973;52.084;5.412;2023-04-26T15:35:21;11.70;99.90
61912;DHT22;49973;52.084;5.412;2023-04-26T15:37:51;11.70;99.90
61912;DHT22;49973;52.084;5.412;2023-04-26T15:40:21;11.60;99.90
61912;DHT22;49973;52.084;5.412;2023-04-26T15:42:50;11.50;99.90
61912;DHT22;49973;52.084;5.412;2023-04-26T15:45:19;11.60;99.90
61912;DHT22;49973;52.084;5.412;2023-04-26T15:47:48;11.60;99.90
61912;DHT22;49973;52.084;5.412;2023-04-26T15:50:16;11.50;99.90
61912;DHT22;49973;52.084;5.412;2023-04-26T15:52:45;11.40;99.90
61912;DHT22;49973;52.084;5.412;2023-04-26T15:55:14;11.40;99.90
61912;DHT22;49973;52.084;5.412;2023-04-26T15:57:44;11.40;99.90